Time;durP1;ratioP1;P1;durP2;ratioP2;P2;SDS_P1;SDS_P2;PMS_P1;PMS_P2;Temp;Humidity;BMP_temperature;BMP_pressure;BME280_temperature;BME280_humidity;BME280_pressure;Samples;Min_cycle;Max_cycle;Signal;HPM_P1;HPM_P2
2022/03/26 00:00:23;;;;;;;42.97;26.40;;;;;;;;;;5056204;28;20217;-66
2022/03/26 00:02:51;;;;;;;43.65;26.42;;;;;;;;;;5056186;28;20270;-66
2022/03/26 00:05:17;;;;;;;47.03;27.90;;;;;;;;;;5056083;28;20547;-67
2022/03/26 00:07:45;;;;;;;44.20;27.15;;;;;;;;;;5055866;28;20598;-66
2022/03/26 00:10:12;;;;;;;37.75;25.67;;;;;;;;;;5056606;28;20438;-67
2022/03/26 00:12:39;;;;;;;43.33;27.65;;;;;;;;;;5056518;28;20559;-66
2022/03/26 00:15:05;;;;;;;47.50;27.60;;;;;;;;;;5056081;28;20228;-66
2022/03/26 00:17:32;;;;;;;46.90;28.92;;;;;;;;;;5055786;28;20247;-67
2022/03/26 00:19:58;;;;;;;41.47;27.02;;;;;;;;;;5055912;28;20209;-66
2022/03/26 00:22:24;;;;;;;45.50;27.13;;;;;;;;;;5055653;28;20227;-67
2022/03/26 00:24:52;;;;;;;40.92;26.98;;;;;;;;;;5055703;28;20251;-66
2022/03/26 00:27:18;;;;;;;46.15;28.20;;;;;;;;;;5055141;28;20427;-67
2022/03/26 00:29:45;;;;;;;42.63;26.92;;;;;;;;;;5056228;28;20251;-67
2022/03/26 00:32:11;;;;;;;44.63;27.73;;;;;;;;;;5059983;28;20528;-67
2022/03/26 00:34:37;;;;;;;41.85;26.00;;;;;;;;;;5059569;28;20228;-67
2022/03/26 00:37:04;;;;;;;43.33;28.15;;;;;;;;;;5059051;28;20213;-67
2022/03/26 00:39:31;;;;;;;46.75;27.70;;;;;;;;;;5059670;28;20513;-66
2022/03/26 00:41:58;;;;;;;42.13;27.15;;;;;;;;;;5058992;28;20213;-67
2022/03/26 00:44:25;;;;;;;43.55;27.63;;;;;;;;;;5059621;28;20227;-67
2022/03/26 00:46:51;;;;;;;41.60;25.90;;;;;;;;;;5058694;28;20216;-67
2022/03/26 00:49:18;;;;;;;40.80;25.98;;;;;;;;;;5059418;28;20231;-67
2022/03/26 00:51:45;;;;;;;40.88;26.83;;;;;;;;;;5059361;28;20255;-67
2022/03/26 00:54:12;;;;;;;41.05;25.67;;;;;;;;;;5059269;28;20570;-67
2022/03/26 00:56:39;;;;;;;40.88;27.60;;;;;;;;;;5058759;28;20209;-67
2022/03/26 00:59:07;;;;;;;40.88;25.58;;;;;;;;;;5059184;28;20213;-67
2022/03/26 01:01:33;;;;;;;41.10;25.95;;;;;;;;;;5059211;28;20208;-67
2022/03/26 01:03:59;;;;;;;39.88;26.40;;;;;;;;;;5059383;28;20689;-67
2022/03/26 01:06:27;;;;;;;42.22;26.35;;;;;;;;;;5058169;28;20222;-67
2022/03/26 01:08:53;;;;;;;41.35;24.40;;;;;;;;;;5058854;28;20209;-67
2022/03/26 01:11:20;;;;;;;36.22;23.67;;;;;;;;;;5059029;28;20276;-67
2022/03/26 01:13:46;;;;;;;36.60;25.20;;;;;;;;;;5059014;28;20216;-66
2022/03/26 01:16:14;;;;;;;40.47;24.65;;;;;;;;;;5058200;28;20225;-66
2022/03/26 01:18:41;;;;;;;40.20;24.63;;;;;;;;;;5058805;28;20209;-66
2022/03/26 01:21:07;;;;;;;33.90;23.00;;;;;;;;;;5058805;28;20247;-67
2022/03/26 01:23:34;;;;;;;38.78;24.70;;;;;;;;;;5058770;28;20250;-66
2022/03/26 01:26:00;;;;;;;37.60;23.45;;;;;;;;;;5058122;28;20213;-66
2022/03/26 01:28:26;;;;;;;38.50;23.95;;;;;;;;;;5058671;28;20536;-67
2022/03/26 01:30:53;;;;;;;41.80;23.48;;;;;;;;;;5058670;28;20209;-67
2022/03/26 01:33:20;;;;;;;35.80;22.85;;;;;;;;;;5058413;28;20209;-67
2022/03/26 01:35:47;;;;;;;33.75;22.83;;;;;;;;;;5058011;28;20292;-67
2022/03/26 01:38:13;;;;;;;33.97;22.45;;;;;;;;;;5057809;28;20513;-66
2022/03/26 01:40:39;;;;;;;34.92;22.70;;;;;;;;;;5058986;28;20213;-66
2022/03/26 01:43:06;;;;;;;36.33;22.02;;;;;;;;;;5057381;28;20282;-67
2022/03/26 01:45:32;;;;;;;37.47;23.63;;;;;;;;;;5058172;28;20197;-67
2022/03/26 01:47:59;;;;;;;38.35;22.45;;;;;;;;;;5057908;28;20267;-67
2022/03/26 01:50:27;;;;;;;34.05;22.70;;;;;;;;;;5058067;28;20234;-67
2022/03/26 01:52:53;;;;;;;40.20;22.30;;;;;;;;;;5058029;28;20209;-67
2022/03/26 01:55:20;;;;;;;37.13;22.92;;;;;;;;;;5057845;28;20229;-67
2022/03/26 01:57:46;;;;;;;33.85;22.60;;;;;;;;;;5057475;28;20209;-67
2022/03/26 02:00:13;;;;;;;39.15;24.58;;;;;;;;;;5058276;28;20536;-67
2022/03/26 02:02:43;;;;;;;35.92;23.00;;;;;;;;;;5057762;28;20247;-67
2022/03/26 02:05:09;;;;;;;36.10;22.40;;;;;;;;;;5057247;28;20236;-67
2022/03/26 02:07:37;;;;;;;34.47;21.75;;;;;;;;;;5057425;28;20213;-67
2022/03/26 02:10:04;;;;;;;37.35;23.20;;;;;;;;;;5057907;28;20243;-66
2022/03/26 02:12:30;;;;;;;38.20;23.17;;;;;;;;;;5057726;28;20565;-66
2022/03/26 02:14:57;;;;;;;35.83;23.38;;;;;;;;;;5057847;28;20248;-66
2022/03/26 02:17:24;;;;;;;37.53;24.23;;;;;;;;;;5057159;28;20359;-66
2022/03/26 02:19:52;;;;;;;36.33;22.27;;;;;;;;;;5057828;28;20391;-66
2022/03/26 02:22:20;;;;;;;35.72;22.73;;;;;;;;;;5057575;28;20208;-66
2022/03/26 02:24:46;;;;;;;38.72;23.50;;;;;;;;;;5058517;28;20212;-66
2022/03/26 02:27:12;;;;;;;35.75;24.05;;;;;;;;;;5068645;28;20219;-67
2022/03/26 02:32:41;;;;;;;39.15;23.05;;;;;;;;;;5057757;28;20203;-66
2022/03/26 02:35:09;;;;;;;37.50;22.27;;;;;;;;;;5059926;28;20283;-66
2022/03/26 02:37:35;;;;;;;40.53;23.70;;;;;;;;;;5072614;28;20501;-66
2022/03/26 02:40:04;;;;;;;39.00;22.60;;;;;;;;;;5077519;28;20226;-66
2022/03/26 02:42:31;;;;;;;34.65;22.35;;;;;;;;;;5072412;28;20608;-66
2022/03/26 02:44:58;;;;;;;33.33;22.45;;;;;;;;;;5056316;28;20217;-66
2022/03/26 02:47:24;;;;;;;42.45;24.75;;;;;;;;;;5056789;28;20255;-66
2022/03/26 02:49:50;;;;;;;40.47;24.05;;;;;;;;;;5057594;28;20250;-66
2022/03/26 02:52:18;;;;;;;35.72;23.80;;;;;;;;;;5057232;28;20209;-65
2022/03/26 02:54:44;;;;;;;43.65;24.48;;;;;;;;;;5056881;28;20208;-65
2022/03/26 02:57:10;;;;;;;34.97;23.08;;;;;;;;;;5056705;28;20276;-65
2022/03/26 02:59:37;;;;;;;37.40;23.00;;;;;;;;;;5057510;28;20459;-65
2022/03/26 03:02:04;;;;;;;38.58;23.23;;;;;;;;;;5057169;28;20266;-65
2022/03/26 03:04:30;;;;;;;40.50;25.13;;;;;;;;;;5056708;28;20209;-65
2022/03/26 03:06:56;;;;;;;34.75;22.73;;;;;;;;;;5056010;28;20493;-65
2022/03/26 03:09:24;;;;;;;39.13;23.13;;;;;;;;;;5057038;28;20264;-65
2022/03/26 03:11:51;;;;;;;38.85;23.33;;;;;;;;;;5056786;28;20201;-65
2022/03/26 03:14:18;;;;;;;39.15;24.50;;;;;;;;;;5056981;28;20223;-65
2022/03/26 03:16:45;;;;;;;40.15;23.92;;;;;;;;;;5056576;28;20229;-65
2022/03/26 03:19:11;;;;;;;37.65;23.38;;;;;;;;;;5056756;28;20217;-65
2022/03/26 03:21:38;;;;;;;36.08;23.85;;;;;;;;;;5056963;28;20662;-65
2022/03/26 03:24:04;;;;;;;42.28;25.88;;;;;;;;;;5056795;28;20282;-65
2022/03/26 03:26:32;;;;;;;48.20;27.02;;;;;;;;;;5056167;28;20201;-66
2022/03/26 03:28:59;;;;;;;47.10;27.33;;;;;;;;;;5056902;28;20236;-65
2022/03/26 03:31:25;;;;;;;42.33;25.58;;;;;;;;;;5056618;28;20236;-65
2022/03/26 03:33:52;;;;;;;45.28;27.23;;;;;;;;;;5056597;28;20291;-65
2022/03/26 03:36:18;;;;;;;42.90;25.55;;;;;;;;;;5055744;28;20225;-65
2022/03/26 03:38:44;;;;;;;43.75;26.42;;;;;;;;;;5056413;28;20208;-65
2022/03/26 03:41:10;;;;;;;39.03;25.90;;;;;;;;;;5056464;28;20254;-65
2022/03/26 03:43:38;;;;;;;37.53;25.20;;;;;;;;;;5056627;28;20227;-65
2022/03/26 03:46:04;;;;;;;43.08;26.95;;;;;;;;;;5055569;28;20271;-66
2022/03/26 03:48:30;;;;;;;44.38;26.20;;;;;;;;;;5056331;28;20259;-66
2022/03/26 03:50:57;;;;;;;38.30;25.00;;;;;;;;;;5056662;28;20448;-65
2022/03/26 03:53:23;;;;;;;39.88;25.17;;;;;;;;;;5056643;28;20523;-65
2022/03/26 03:55:49;;;;;;;36.20;23.52;;;;;;;;;;5055889;28;20275;-65
2022/03/26 03:58:15;;;;;;;41.38;24.55;;;;;;;;;;5056138;28;20209;-65
2022/03/26 04:00:43;;;;;;;39.78;24.33;;;;;;;;;;5056033;28;20213;-65
2022/03/26 04:03:09;;;;;;;39.55;24.15;;;;;;;;;;5056397;28;20491;-65
2022/03/26 04:05:35;;;;;;;35.13;21.77;;;;;;;;;;5057610;28;20267;-65
2022/03/26 04:08:02;;;;;;;36.75;22.80;;;;;;;;;;5059726;28;20530;-65
2022/03/26 04:10:28;;;;;;;38.78;22.98;;;;;;;;;;5060304;28;20209;-65
2022/03/26 04:12:54;;;;;;;38.10;23.23;;;;;;;;;;5059943;28;20528;-65
2022/03/26 04:15:20;;;;;;;38.40;23.95;;;;;;;;;;5059742;28;20231;-65
2022/03/26 04:17:52;;;;;;;38.85;24.42;;;;;;;;;;5059620;28;20213;-65
2022/03/26 04:20:19;;;;;;;35.45;22.58;;;;;;;;;;5060113;28;20439;-65
2022/03/26 04:22:45;;;;;;;38.72;24.80;;;;;;;;;;5060220;28;20247;-65
2022/03/26 04:25:11;;;;;;;39.38;24.23;;;;;;;;;;5059781;28;20720;-65
2022/03/26 04:27:41;;;;;;;35.92;23.60;;;;;;;;;;5059106;28;20583;-65
2022/03/26 04:30:08;;;;;;;39.53;24.88;;;;;;;;;;5059988;28;20278;-65
2022/03/26 04:32:36;;;;;;;40.42;25.75;;;;;;;;;;5059683;28;20276;-65
2022/03/26 04:35:04;;;;;;;39.50;25.38;;;;;;;;;;5059905;28;20434;-65
2022/03/26 04:37:30;;;;;;;40.40;24.00;;;;;;;;;;5059050;28;20433;-65
2022/03/26 04:39:56;;;;;;;37.42;23.83;;;;;;;;;;5059826;28;20274;-65
2022/03/26 04:42:22;;;;;;;39.97;24.75;;;;;;;;;;5059312;28;20453;-65
2022/03/26 04:44:49;;;;;;;42.38;25.45;;;;;;;;;;5059697;28;20213;-65
2022/03/26 04:47:15;;;;;;;42.90;25.20;;;;;;;;;;5058710;28;20205;-65
2022/03/26 04:49:41;;;;;;;40.58;25.30;;;;;;;;;;5059383;28;20216;-65
2022/03/26 04:52:09;;;;;;;39.33;24.17;;;;;;;;;;5059492;28;20208;-65
2022/03/26 04:54:35;;;;;;;35.33;23.50;;;;;;;;;;5059252;28;20205;-65
2022/03/26 04:57:01;;;;;;;37.17;24.38;;;;;;;;;;5058522;28;20286;-65
2022/03/26 04:59:28;;;;;;;37.28;24.08;;;;;;;;;;5059286;28;20440;-65
2022/03/26 05:01:54;;;;;;;40.65;25.35;;;;;;;;;;5059229;28;20258;-65
2022/03/26 05:04:20;;;;;;;40.13;23.55;;;;;;;;;;5059071;28;20201;-66
2022/03/26 05:06:46;;;;;;;37.67;24.55;;;;;;;;;;5058240;28;20228;-66
2022/03/26 05:09:14;;;;;;;41.33;25.02;;;;;;;;;;5058834;28;20247;-65
2022/03/26 05:11:40;;;;;;;40.42;25.25;;;;;;;;;;5058942;28;20217;-65
2022/03/26 05:14:06;;;;;;;40.80;24.13;;;;;;;;;;5059017;28;20255;-65
2022/03/26 05:16:33;;;;;;;39.67;24.60;;;;;;;;;;5057893;28;20271;-66
2022/03/26 05:18:59;;;;;;;37.33;24.08;;;;;;;;;;5059023;28;20209;-66
2022/03/26 05:21:25;;;;;;;44.25;25.65;;;;;;;;;;5058889;28;20255;-66
2022/03/26 05:23:52;;;;;;;38.15;24.00;;;;;;;;;;5058567;28;20253;-66
2022/03/26 05:26:22;;;;;;;40.70;23.48;;;;;;;;;;5058112;28;20209;-66
2022/03/26 05:28:49;;;;;;;36.33;23.40;;;;;;;;;;5058869;28;20515;-66
2022/03/26 05:31:15;;;;;;;37.78;23.42;;;;;;;;;;5058805;28;20520;-66
2022/03/26 05:33:42;;;;;;;42.78;23.88;;;;;;;;;;5058447;28;20410;-66
2022/03/26 05:36:08;;;;;;;42.25;24.58;;;;;;;;;;5058267;28;20255;-66
2022/03/26 05:38:34;;;;;;;40.47;23.77;;;;;;;;;;5058036;28;20263;-66
2022/03/26 05:41:00;;;;;;;44.20;24.77;;;;;;;;;;5058517;28;20209;-66
2022/03/26 05:43:28;;;;;;;41.13;23.75;;;;;;;;;;5058383;28;20209;-66
2022/03/26 05:45:54;;;;;;;41.08;24.75;;;;;;;;;;5057902;28;20213;-66
2022/03/26 05:48:20;;;;;;;39.60;24.15;;;;;;;;;;5058066;28;20250;-66
2022/03/26 05:50:47;;;;;;;41.88;24.70;;;;;;;;;;5058365;28;20209;-66
2022/03/26 05:53:13;;;;;;;39.80;24.77;;;;;;;;;;5058091;28;20213;-66
2022/03/26 05:55:39;;;;;;;44.28;24.27;;;;;;;;;;5058191;28;20200;-66
2022/03/26 05:58:05;;;;;;;40.72;24.50;;;;;;;;;;5057735;28;20208;-66
2022/03/26 06:00:33;;;;;;;38.85;24.17;;;;;;;;;;5058234;28;20213;-66
2022/03/26 06:02:59;;;;;;;44.03;24.65;;;;;;;;;;5058025;28;20275;-66
2022/03/26 06:05:25;;;;;;;38.83;24.88;;;;;;;;;;5057562;28;20225;-66
2022/03/26 06:07:52;;;;;;;42.25;25.15;;;;;;;;;;5057278;28;20575;-66
2022/03/26 06:10:18;;;;;;;43.00;24.58;;;;;;;;;;5058124;28;20398;-66
2022/03/26 06:12:45;;;;;;;37.47;24.45;;;;;;;;;;5057935;28;20241;-66
2022/03/26 06:15:12;;;;;;;36.42;23.98;;;;;;;;;;5057657;28;20255;-66
2022/03/26 06:17:40;;;;;;;39.08;24.40;;;;;;;;;;5057157;28;20410;-66
2022/03/26 06:20:06;;;;;;;38.08;25.27;;;;;;;;;;5057556;28;20302;-66
2022/03/26 06:22:33;;;;;;;39.22;24.38;;;;;;;;;;5058020;28;20221;-66
2022/03/26 06:24:59;;;;;;;43.72;25.67;;;;;;;;;;5057662;28;20227;-66
2022/03/26 06:27:25;;;;;;;39.75;25.77;;;;;;;;;;5056983;28;20209;-66
2022/03/26 06:29:51;;;;;;;40.78;26.15;;;;;;;;;;5057632;28;20209;-66
2022/03/26 06:32:18;;;;;;;45.30;25.73;;;;;;;;;;5057589;28;20251;-66
2022/03/26 06:34:46;;;;;;;40.28;26.13;;;;;;;;;;5057085;28;20209;-66
2022/03/26 06:37:12;;;;;;;42.92;27.48;;;;;;;;;;5057002;28;20290;-66
2022/03/26 06:39:38;;;;;;;43.85;27.45;;;;;;;;;;5057173;28;20221;-66
2022/03/26 06:42:05;;;;;;;43.17;27.42;;;;;;;;;;5057428;28;20238;-66
2022/03/26 06:44:31;;;;;;;44.13;26.35;;;;;;;;;;5057291;28;20212;-66
2022/03/26 06:46:57;;;;;;;47.80;26.40;;;;;;;;;;5056609;28;20267;-66
2022/03/26 06:49:31;;;;;;;39.22;25.85;;;;;;;;;;5057003;28;20574;-66
2022/03/26 06:51:59;;;;;;;42.45;26.95;;;;;;;;;;5057624;28;20520;-66
2022/03/26 06:54:25;;;;;;;46.00;26.70;;;;;;;;;;5057389;28;20209;-66
2022/03/26 06:56:52;;;;;;;43.00;27.65;;;;;;;;;;5056163;28;20490;-66
2022/03/26 06:59:19;;;;;;;45.45;27.45;;;;;;;;;;5057140;28;20258;-66
2022/03/26 07:01:45;;;;;;;45.45;27.92;;;;;;;;;;5056746;28;20536;-66
2022/03/26 07:04:11;;;;;;;42.10;29.15;;;;;;;;;;5057167;28;20208;-66
2022/03/26 07:06:37;;;;;;;49.70;29.27;;;;;;;;;;5056102;28;20225;-66
2022/03/26 07:09:05;;;;;;;45.22;29.05;;;;;;;;;;5057098;28;20256;-66
2022/03/26 07:11:31;;;;;;;42.80;27.77;;;;;;;;;;5056572;28;20209;-66
2022/03/26 07:13:57;;;;;;;54.67;29.20;;;;;;;;;;5056725;28;20255;-66
2022/03/26 07:16:24;;;;;;;52.30;30.80;;;;;;;;;;5055725;28;20221;-66
2022/03/26 07:18:50;;;;;;;48.60;31.52;;;;;;;;;;5056505;28;20216;-66
2022/03/26 07:21:16;;;;;;;60.17;32.22;;;;;;;;;;5056680;28;20209;-66
2022/03/26 07:23:42;;;;;;;53.72;32.38;;;;;;;;;;5056890;28;20251;-66
2022/03/26 07:26:10;;;;;;;59.08;31.52;;;;;;;;;;5065953;28;20220;-66
2022/03/26 07:28:36;;;;;;;63.40;31.65;;;;;;;;;;5076513;28;20208;-66
2022/03/26 07:31:03;;;;;;;65.47;33.05;;;;;;;;;;5076168;28;20257;-66
2022/03/26 07:33:29;;;;;;;61.35;31.85;;;;;;;;;;5056606;28;20263;-66
2022/03/26 07:35:55;;;;;;;54.78;29.50;;;;;;;;;;5056442;28;20267;-66
2022/03/26 07:38:21;;;;;;;47.75;28.52;;;;;;;;;;5056283;28;20271;-66
2022/03/26 07:40:48;;;;;;;44.63;28.02;;;;;;;;;;5061445;28;20209;-67
2022/03/26 07:43:15;;;;;;;48.40;28.17;;;;;;;;;;5061411;28;20212;-66
2022/03/26 07:45:43;;;;;;;45.20;26.77;;;;;;;;;;5060099;28;20213;-66
2022/03/26 07:48:09;;;;;;;42.25;26.75;;;;;;;;;;5060582;28;20272;-67
2022/03/26 07:50:36;;;;;;;42.55;26.73;;;;;;;;;;5060341;28;20209;-67
2022/03/26 07:53:02;;;;;;;51.13;28.17;;;;;;;;;;5060373;28;20543;-67
2022/03/26 07:55:28;;;;;;;44.03;26.50;;;;;;;;;;5059871;28;20524;-67
2022/03/26 07:57:54;;;;;;;43.75;27.58;;;;;;;;;;5059697;28;20224;-67
2022/03/26 08:00:22;;;;;;;48.60;27.65;;;;;;;;;;5060468;28;20255;-67
2022/03/26 08:02:48;;;;;;;47.53;27.00;;;;;;;;;;5059543;28;20213;-67
2022/03/26 08:05:15;;;;;;;44.65;28.00;;;;;;;;;;5060013;28;20252;-60
2022/03/26 08:07:41;;;;;;;48.75;27.38;;;;;;;;;;5059679;28;20208;-60
2022/03/26 08:10:08;;;;;;;45.10;26.83;;;;;;;;;;5060033;28;20283;-59
2022/03/26 08:12:34;;;;;;;49.75;28.15;;;;;;;;;;5058426;28;20247;-61
2022/03/26 08:15:01;;;;;;;43.65;26.75;;;;;;;;;;5059943;28;20244;-61
2022/03/26 08:17:30;;;;;;;50.80;27.23;;;;;;;;;;5059461;28;20800;-60
2022/03/26 08:19:56;;;;;;;56.08;28.23;;;;;;;;;;5060331;28;20209;-59
2022/03/26 08:22:22;;;;;;;54.70;28.10;;;;;;;;;;5059838;28;20525;-60
2022/03/26 08:24:48;;;;;;;47.30;27.67;;;;;;;;;;5059873;28;20393;-60
2022/03/26 08:27:14;;;;;;;43.55;25.92;;;;;;;;;;5059015;28;20205;-60
2022/03/26 08:29:41;;;;;;;52.25;28.52;;;;;;;;;;5059947;28;20217;-59
2022/03/26 08:32:07;;;;;;;49.40;28.05;;;;;;;;;;5059667;28;20213;-60
2022/03/26 08:34:35;;;;;;;49.03;27.40;;;;;;;;;;5059339;28;20397;-58
2022/03/26 08:37:01;;;;;;;44.65;27.08;;;;;;;;;;5058652;28;20225;-61
2022/03/26 08:39:27;;;;;;;49.70;29.98;;;;;;;;;;5059385;28;20440;-67
2022/03/26 08:41:54;;;;;;;46.67;27.17;;;;;;;;;;5059323;28;20215;-67
2022/03/26 08:44:20;;;;;;;51.53;26.48;;;;;;;;;;5058981;28;20213;-67
2022/03/26 08:46:46;;;;;;;43.60;26.17;;;;;;;;;;5058476;28;20213;-67
2022/03/26 08:49:12;;;;;;;46.80;27.85;;;;;;;;;;5059501;28;20209;-68
2022/03/26 08:51:40;;;;;;;46.25;27.73;;;;;;;;;;5058501;28;20251;-68
2022/03/26 08:54:07;;;;;;;43.17;26.33;;;;;;;;;;5059462;28;20255;-65
2022/03/26 08:56:33;;;;;;;49.95;25.98;;;;;;;;;;5058407;28;20208;-65
2022/03/26 08:58:59;;;;;;;45.75;27.92;;;;;;;;;;5059228;28;20390;-65
2022/03/26 09:01:25;;;;;;;50.10;26.38;;;;;;;;;;5059028;28;20386;-65
2022/03/26 09:03:52;;;;;;;46.63;27.73;;;;;;;;;;5059017;28;20263;-65
2022/03/26 09:06:18;;;;;;;60.33;27.05;;;;;;;;;;5057783;28;20240;-66
2022/03/26 09:08:46;;;;;;;48.40;26.42;;;;;;;;;;5058738;28;20232;-66
2022/03/26 09:11:12;;;;;;;46.80;27.60;;;;;;;;;;5058634;28;20216;-65
2022/03/26 09:13:39;;;;;;;47.35;27.27;;;;;;;;;;5058851;28;20209;-65
2022/03/26 09:16:05;;;;;;;48.33;27.50;;;;;;;;;;5058011;28;20274;-66
2022/03/26 09:18:32;;;;;;;46.83;26.63;;;;;;;;;;5058755;28;20418;-66
2022/03/26 09:20:58;;;;;;;56.45;27.45;;;;;;;;;;5058970;28;20501;-65
2022/03/26 09:23:24;;;;;;;47.78;27.02;;;;;;;;;;5058856;28;20463;-66
2022/03/26 09:25:52;;;;;;;47.28;26.67;;;;;;;;;;5057722;28;20283;-66
2022/03/26 09:28:18;;;;;;;46.60;27.58;;;;;;;;;;5058402;28;20418;-66
2022/03/26 09:30:45;;;;;;;42.92;25.63;;;;;;;;;;5058323;28;20574;-66
2022/03/26 09:33:11;;;;;;;46.40;27.13;;;;;;;;;;5057943;28;20209;-65
2022/03/26 09:35:37;;;;;;;43.38;26.83;;;;;;;;;;5057907;28;20208;-66
2022/03/26 09:38:04;;;;;;;48.67;27.83;;;;;;;;;;5057207;28;20233;-66
2022/03/26 09:40:32;;;;;;;50.10;27.38;;;;;;;;;;5057168;28;20489;-66
2022/03/26 09:43:00;;;;;;;46.75;27.15;;;;;;;;;;5057723;28;20209;-66
2022/03/26 09:45:26;;;;;;;47.28;27.73;;;;;;;;;;5057765;28;20539;-66
2022/03/26 09:47:52;;;;;;;46.03;26.17;;;;;;;;;;5056455;28;20431;-66
2022/03/26 09:50:19;;;;;;;43.42;26.17;;;;;;;;;;5057553;28;20204;-66
2022/03/26 09:52:46;;;;;;;46.38;26.80;;;;;;;;;;5057629;28;20209;-66
2022/03/26 09:55:12;;;;;;;46.78;29.17;;;;;;;;;;5057292;28;20220;-66
2022/03/26 09:57:39;;;;;;;54.10;26.83;;;;;;;;;;5056448;28;20267;-66
2022/03/26 10:00:08;;;;;;;44.03;26.15;;;;;;;;;;5057643;28;20236;-66
2022/03/26 10:02:34;;;;;;;52.28;27.80;;;;;;;;;;5056566;28;20280;-66
2022/03/26 10:05:01;;;;;;;48.05;26.98;;;;;;;;;;5057104;28;20225;-66
2022/03/26 10:07:28;;;;;;;51.72;26.77;;;;;;;;;;5056084;28;20232;-66
2022/03/26 10:09:55;;;;;;;53.25;27.15;;;;;;;;;;5057188;28;20239;-66
2022/03/26 10:12:22;;;;;;;47.00;28.40;;;;;;;;;;5057090;28;20388;-66
2022/03/26 10:14:51;;;;;;;47.92;26.85;;;;;;;;;;5057154;28;20233;-66
2022/03/26 10:17:19;;;;;;;47.72;27.55;;;;;;;;;;5056141;28;20209;-66
2022/03/26 10:19:46;;;;;;;53.95;29.17;;;;;;;;;;5056525;28;20339;-66
2022/03/26 10:22:13;;;;;;;46.83;27.85;;;;;;;;;;5057220;28;20365;-66
2022/03/26 10:24:43;;;;;;;45.05;26.35;;;;;;;;;;5057156;28;20217;-66
2022/03/26 10:27:11;;;;;;;49.13;26.23;;;;;;;;;;5056610;28;20209;-66
2022/03/26 10:29:48;;;;;;;41.80;26.27;;;;;;;;;;5056657;28;20200;-66
2022/03/26 10:35:04;;;;;;;43.03;25.58;;;;;;;;;;5057185;28;20235;-66
2022/03/26 10:37:31;;;;;;;39.78;24.98;;;;;;;;;;5056213;28;20236;-66
2022/03/26 10:39:57;;;;;;;38.45;24.52;;;;;;;;;;5056084;28;20213;-66
2022/03/26 10:42:30;;;;;;;37.25;24.08;;;;;;;;;;5056898;28;20558;-66
2022/03/26 10:44:59;;;;;;;45.72;26.48;;;;;;;;;;5056672;28;20209;-66
2022/03/26 10:47:29;;;;;;;35.28;23.65;;;;;;;;;;5056743;28;20209;-66
2022/03/26 10:49:56;;;;;;;43.15;25.02;;;;;;;;;;5056849;28;20465;-66
2022/03/26 10:52:23;;;;;;;39.63;25.52;;;;;;;;;;5056943;28;20209;-67
2022/03/26 10:54:50;;;;;;;43.88;25.98;;;;;;;;;;5056792;28;20209;-66
2022/03/26 10:57:20;;;;;;;39.60;24.98;;;;;;;;;;5056136;28;20197;-66
2022/03/26 10:59:47;;;;;;;41.45;26.15;;;;;;;;;;5056656;28;20215;-66
2022/03/26 11:02:14;;;;;;;37.97;24.00;;;;;;;;;;5056437;28;20208;-66
2022/03/26 11:04:40;;;;;;;40.47;24.00;;;;;;;;;;5056724;28;20272;-67
2022/03/26 11:07:07;;;;;;;38.92;24.80;;;;;;;;;;5056158;28;20239;-67
2022/03/26 11:09:35;;;;;;;43.22;27.25;;;;;;;;;;5056873;28;20204;-67
2022/03/26 11:12:01;;;;;;;42.42;25.40;;;;;;;;;;5055906;28;20466;-66
2022/03/26 11:14:32;;;;;;;38.15;24.25;;;;;;;;;;5056310;28;20555;-66
2022/03/26 11:17:03;;;;;;;43.67;24.27;;;;;;;;;;5056781;28;20209;-67
2022/03/26 11:19:35;;;;;;;34.42;23.55;;;;;;;;;;5056365;28;20224;-66
2022/03/26 11:22:13;;;;;;;40.58;24.83;;;;;;;;;;5056161;28;20469;-67
2022/03/26 11:24:52;;;;;;;37.30;24.80;;;;;;;;;;5056437;28;20220;-67
2022/03/26 11:27:25;;;;;;;36.50;24.33;;;;;;;;;;5056004;28;20266;-67
2022/03/26 11:29:53;;;;;;;33.50;23.08;;;;;;;;;;5056734;28;20217;-67
2022/03/26 11:32:22;;;;;;;35.00;23.02;;;;;;;;;;5056202;28;20255;-67
2022/03/26 11:34:51;;;;;;;41.28;25.20;;;;;;;;;;5056087;28;20251;-67
2022/03/26 11:37:21;;;;;;;40.03;23.27;;;;;;;;;;5055965;28;20524;-67
2022/03/26 11:39:51;;;;;;;37.33;23.58;;;;;;;;;;5056371;28;20284;-65
2022/03/26 11:42:22;;;;;;;31.33;20.98;;;;;;;;;;5056395;28;20212;-65
2022/03/26 11:53:09;;;;;;;36.60;23.73;;;;;;;;;;5056016;28;20272;-65
2022/03/26 11:55:43;;;;;;;38.65;25.05;;;;;;;;;;5056167;28;20205;-65
2022/03/26 11:58:20;;;;;;;40.95;25.90;;;;;;;;;;5056046;28;20228;-65
2022/03/26 12:00:53;;;;;;;42.95;24.27;;;;;;;;;;5056391;28;20204;-65
2022/03/26 12:03:22;;;;;;;40.35;24.15;;;;;;;;;;5055863;28;20205;-65
2022/03/26 12:08:36;;;;;;;38.75;23.80;;;;;;;;;;5056289;28;20204;-65
2022/03/26 12:11:04;;;;;;;33.40;22.45;;;;;;;;;;5056126;28;20267;-65
2022/03/26 12:13:32;;;;;;;40.70;24.63;;;;;;;;;;5056074;28;20219;-65
2022/03/26 12:15:59;;;;;;;36.92;22.52;;;;;;;;;;5055671;28;20217;-65
2022/03/26 12:18:31;;;;;;;33.72;22.75;;;;;;;;;;5056175;28;20209;-65
2022/03/26 12:21:06;;;;;;;37.47;22.10;;;;;;;;;;5056270;28;20259;-65
2022/03/26 12:23:34;;;;;;;31.98;21.92;;;;;;;;;;5055601;28;20250;-66
2022/03/26 12:26:01;;;;;;;35.28;22.33;;;;;;;;;;5056278;28;20248;-66
2022/03/26 12:28:32;;;;;;;32.53;22.05;;;;;;;;;;5059590;28;20259;-66
2022/03/26 12:31:00;;;;;;;31.23;21.98;;;;;;;;;;5060250;28;20209;-66
2022/03/26 12:33:26;;;;;;;27.77;20.17;;;;;;;;;;5060148;28;20274;-66
2022/03/26 12:35:53;;;;;;;34.20;21.38;;;;;;;;;;5058780;28;20209;-66
2022/03/26 12:38:20;;;;;;;33.65;20.60;;;;;;;;;;5059510;28;20227;-66
2022/03/26 12:40:50;;;;;;;36.72;19.27;;;;;;;;;;5059586;28;20205;-66
2022/03/26 12:43:17;;;;;;;30.17;20.35;;;;;;;;;;5059852;28;20209;-66
2022/03/26 12:45:44;;;;;;;30.70;18.70;;;;;;;;;;5058545;28;20216;-66
2022/03/26 12:48:11;;;;;;;24.63;17.70;;;;;;;;;;5059027;28;20567;-66
2022/03/26 12:50:38;;;;;;;24.23;17.58;;;;;;;;;;5059493;28;20404;-66
2022/03/26 12:53:07;;;;;;;25.88;15.95;;;;;;;;;;5059516;28;20213;-67
2022/03/26 12:55:33;;;;;;;29.27;17.20;;;;;;;;;;5058664;28;20235;-67
2022/03/26 13:00:46;;;;;;;27.30;16.35;;;;;;;;;;5059436;28;20577;-67
2022/03/26 13:03:13;;;;;;;26.45;17.02;;;;;;;;;;5059307;28;20443;-67
2022/03/26 13:05:40;;;;;;;22.70;15.38;;;;;;;;;;5058227;28;20454;-67
2022/03/26 13:08:11;;;;;;;23.33;16.13;;;;;;;;;;5058564;28;20231;-66
2022/03/26 13:10:39;;;;;;;27.48;16.52;;;;;;;;;;5058906;28;20215;-67
2022/03/26 13:13:06;;;;;;;29.23;17.55;;;;;;;;;;5059155;28;20212;-67
2022/03/26 13:15:33;;;;;;;23.98;18.40;;;;;;;;;;5058567;28;20209;-67
2022/03/26 13:18:02;;;;;;;23.38;16.02;;;;;;;;;;5057913;28;20212;-67
2022/03/26 13:20:29;;;;;;;23.55;17.50;;;;;;;;;;5058963;28;20200;-67
2022/03/26 13:22:57;;;;;;;27.75;17.75;;;;;;;;;;5059208;28;20208;-67
2022/03/26 13:25:23;;;;;;;25.25;16.58;;;;;;;;;;5058168;28;20232;-67
2022/03/26 13:27:50;;;;;;;27.23;17.75;;;;;;;;;;5058072;28;20204;-67
2022/03/26 13:30:18;;;;;;;27.25;17.83;;;;;;;;;;5058648;28;20212;-67
2022/03/26 13:32:45;;;;;;;29.20;17.70;;;;;;;;;;5059030;28;20228;-67
2022/03/26 13:35:14;;;;;;;25.90;17.05;;;;;;;;;;5058416;28;20318;-67
2022/03/26 13:37:45;;;;;;;32.13;18.17;;;;;;;;;;5056958;28;20254;-67
2022/03/26 13:40:11;;;;;;;26.52;16.38;;;;;;;;;;5058105;28;20393;-67
2022/03/26 13:42:39;;;;;;;27.77;17.55;;;;;;;;;;5058094;28;20204;-67
2022/03/26 13:45:05;;;;;;;23.58;16.98;;;;;;;;;;5057704;28;20223;-67
2022/03/26 13:47:32;;;;;;;24.27;18.02;;;;;;;;;;5057074;28;20358;-67
2022/03/26 13:50:04;;;;;;;28.58;17.48;;;;;;;;;;5058103;28;20413;-67
2022/03/26 13:52:32;;;;;;;24.77;17.25;;;;;;;;;;5057920;28;20415;-67
2022/03/26 13:54:59;;;;;;;22.27;17.00;;;;;;;;;;5057904;28;20212;-67
2022/03/26 13:57:29;;;;;;;23.55;16.67;;;;;;;;;;5057342;28;20227;-67
2022/03/26 13:59:55;;;;;;;26.38;16.35;;;;;;;;;;5058042;28;20458;-67
2022/03/26 14:02:23;;;;;;;34.20;18.38;;;;;;;;;;5057909;28;20431;-66
2022/03/26 14:04:50;;;;;;;26.80;16.65;;;;;;;;;;5057478;28;20213;-66
2022/03/26 14:07:16;;;;;;;25.13;18.20;;;;;;;;;;5057152;28;20434;-66
2022/03/26 14:09:52;;;;;;;27.90;16.58;;;;;;;;;;5057203;28;20209;-67
2022/03/26 14:12:18;;;;;;;29.02;17.30;;;;;;;;;;5057545;28;20322;-66
2022/03/26 14:14:45;;;;;;;23.48;16.42;;;;;;;;;;5057509;28;20762;-66
2022/03/26 14:17:11;;;;;;;29.90;17.85;;;;;;;;;;5056631;28;20230;-66
2022/03/26 14:19:38;;;;;;;23.48;17.20;;;;;;;;;;5056679;28;20232;-66
2022/03/26 14:22:04;;;;;;;23.48;16.85;;;;;;;;;;5057809;28;20246;-66
2022/03/26 14:24:30;;;;;;;23.58;15.82;;;;;;;;;;5057286;28;20216;-66
2022/03/26 14:26:58;;;;;;;26.30;16.92;;;;;;;;;;5056370;28;20209;-66
2022/03/26 14:29:24;;;;;;;28.92;17.15;;;;;;;;;;5056726;28;20208;-66
2022/03/26 14:31:51;;;;;;;23.75;15.70;;;;;;;;;;5056951;28;20208;-66
2022/03/26 14:34:17;;;;;;;25.58;16.05;;;;;;;;;;5057279;28;20240;-66